createdAt,value
2022-08-18T00:01:16.843Z,24.00
2022-08-18T00:03:56.254Z,24.05
2022-08-18T00:06:29.369Z,23.97
2022-08-18T00:09:00.580Z,23.95
2022-08-18T00:11:40.536Z,23.97
2022-08-18T00:14:22.221Z,23.94
2022-08-18T00:16:54.176Z,23.88
2022-08-18T00:19:46.515Z,23.92
2022-08-18T00:22:16.019Z,23.95
2022-08-18T00:24:47.904Z,23.99
2022-08-18T00:27:23.290Z,23.98
2022-08-18T00:29:53.215Z,23.97
2022-08-18T00:32:24.692Z,24.00
2022-08-18T00:34:54.500Z,24.00
2022-08-18T00:37:24.419Z,23.99
2022-08-18T00:39:54.110Z,24.00
2022-08-18T00:42:30.837Z,24.00
2022-08-18T00:45:02.918Z,23.96
2022-08-18T00:47:33.209Z,23.93
2022-08-18T00:50:16.813Z,23.82
2022-08-18T00:52:51.458Z,23.90
2022-08-18T00:55:22.745Z,23.83
2022-08-18T00:57:55.578Z,23.76
2022-08-18T01:00:25.162Z,23.76
2022-08-18T01:02:57.573Z,23.75
2022-08-18T01:05:34.297Z,23.69
2022-08-18T01:08:03.778Z,23.60
2022-08-18T01:10:34.811Z,23.51
2022-08-18T01:13:05.047Z,23.43
2022-08-18T01:15:33.997Z,23.38
2022-08-18T01:18:23.383Z,23.37
2022-08-18T01:21:15.028Z,23.35
2022-08-18T01:23:47.404Z,23.32
2022-08-18T01:26:17.506Z,23.29
2022-08-18T01:28:47.429Z,23.22
2022-08-18T01:31:33.023Z,23.14
2022-08-18T01:34:02.524Z,23.07
2022-08-18T01:36:31.880Z,23.06
2022-08-18T01:39:02.294Z,22.95
2022-08-18T01:41:31.502Z,22.91
2022-08-18T01:44:00.986Z,22.91
2022-08-18T01:46:30.470Z,22.88
2022-08-18T01:49:01.298Z,22.87
2022-08-18T01:51:39.674Z,22.93
2022-08-18T01:54:14.733Z,22.92
2022-08-18T01:56:44.661Z,22.87
2022-08-18T01:59:14.625Z,22.88
2022-08-18T02:01:52.788Z,22.92
2022-08-18T02:04:35.623Z,22.91
2022-08-18T02:07:08.694Z,22.93
2022-08-18T02:09:40.438Z,22.91
2022-08-18T02:12:10.911Z,22.86
2022-08-18T02:14:40.293Z,22.84
2022-08-18T02:17:11.325Z,22.87
2022-08-18T02:19:43.578Z,22.87
2022-08-18T02:22:16.111Z,22.90
2022-08-18T02:24:46.683Z,22.91
2022-08-18T02:27:18.134Z,22.90
2022-08-18T02:29:47.271Z,22.87
2022-08-18T02:32:15.932Z,22.81
2022-08-18T02:34:44.960Z,22.73
2022-08-18T02:37:15.612Z,22.69
2022-08-18T02:39:46.231Z,22.58
2022-08-18T02:42:16.475Z,22.61
2022-08-18T02:44:45.518Z,22.60
2022-08-18T02:47:14.595Z,22.58
2022-08-18T02:49:43.615Z,22.55
2022-08-18T02:52:11.987Z,22.56
2022-08-18T02:54:40.901Z,22.61
2022-08-18T02:57:12.437Z,22.63
2022-08-18T02:59:42.762Z,22.61
2022-08-18T03:02:16.256Z,22.57
2022-08-18T03:04:44.609Z,22.57
2022-08-18T03:07:14.977Z,22.56
2022-08-18T03:09:43.368Z,22.54
2022-08-18T03:12:13.459Z,22.43
2022-08-18T03:14:42.399Z,22.33
2022-08-18T03:17:11.070Z,22.25
2022-08-18T03:19:39.969Z,22.20
2022-08-18T03:22:27.531Z,22.17
2022-08-18T03:24:59.316Z,22.14
2022-08-18T03:27:29.028Z,22.18
2022-08-18T03:29:58.787Z,22.24
2022-08-18T03:32:27.331Z,22.29
2022-08-18T03:34:56.488Z,22.34
2022-08-18T03:37:24.913Z,22.30
2022-08-18T03:39:53.677Z,22.28
2022-08-18T03:42:22.415Z,22.27
2022-08-18T03:44:53.310Z,22.29
2022-08-18T03:47:22.141Z,22.29
2022-08-18T03:49:50.617Z,22.29
2022-08-18T03:52:19.469Z,22.28
2022-08-18T03:54:48.873Z,22.25
2022-08-18T03:57:17.267Z,22.28
2022-08-18T03:59:46.676Z,22.31
2022-08-18T04:02:16.741Z,22.28
2022-08-18T04:04:45.117Z,22.24
2022-08-18T04:07:17.555Z,22.14
2022-08-18T04:09:47.488Z,22.14
2022-08-18T04:12:17.785Z,22.15
2022-08-18T04:14:49.625Z,22.18
2022-08-18T04:17:24.565Z,22.18
2022-08-18T04:19:54.271Z,22.21
2022-08-18T04:22:22.999Z,22.16
2022-08-18T04:24:52.594Z,22.16
2022-08-18T04:27:22.147Z,22.16
2022-08-18T04:29:51.046Z,22.13
2022-08-18T04:32:20.961Z,22.14
2022-08-18T04:34:50.584Z,22.07
2022-08-18T04:37:19.290Z,22.03
2022-08-18T04:39:48.905Z,21.98
2022-08-18T04:42:17.647Z,21.98
2022-08-18T04:44:46.786Z,21.98
2022-08-18T04:47:15.169Z,21.94
2022-08-18T04:49:44.963Z,21.92
2022-08-18T04:52:39.847Z,21.87
2022-08-18T04:55:11.645Z,21.80
2022-08-18T04:57:42.783Z,21.84
2022-08-18T05:00:13.074Z,21.87
2022-08-18T05:02:42.521Z,21.96
2022-08-18T05:05:12.420Z,22.01
2022-08-18T05:07:46.448Z,22.08
2022-08-18T05:10:17.586Z,22.07
2022-08-18T05:12:48.826Z,22.07
2022-08-18T05:15:19.131Z,22.08
2022-08-18T05:17:50.792Z,22.08
2022-08-18T05:20:22.386Z,22.07
2022-08-18T05:22:50.723Z,22.07
2022-08-18T05:25:19.638Z,22.13
2022-08-18T05:27:48.105Z,22.15
2022-08-18T05:30:17.272Z,22.12
2022-08-18T05:32:50.153Z,22.16
2022-08-18T05:35:24.308Z,22.17
2022-08-18T05:38:05.589Z,22.18
2022-08-18T05:40:36.222Z,22.18
2022-08-18T05:43:06.228Z,22.18
2022-08-18T05:45:36.597Z,22.19
2022-08-18T05:48:05.304Z,22.11
2022-08-18T05:50:38.369Z,22.16
2022-08-18T05:53:13.172Z,22.16
2022-08-18T05:56:05.377Z,22.23
2022-08-18T05:58:38.572Z,22.26
2022-08-18T06:01:14.201Z,22.31
2022-08-18T06:03:50.252Z,22.37
2022-08-18T06:06:25.525Z,22.39
2022-08-18T06:09:00.130Z,22.36
2022-08-18T06:11:28.484Z,22.43
2022-08-18T06:13:59.782Z,22.49
2022-08-18T06:16:44.524Z,22.55
2022-08-18T06:19:29.715Z,22.57
2022-08-18T06:22:09.411Z,22.57
2022-08-18T06:24:44.170Z,22.58
2022-08-18T06:27:23.165Z,22.57
2022-08-18T06:30:05.483Z,22.64
2022-08-18T06:32:53.628Z,22.69
2022-08-18T06:35:34.653Z,22.72
2022-08-18T06:38:45.443Z,22.77
2022-08-18T06:41:42.263Z,22.79
2022-08-18T06:44:08.299Z,22.82
2022-08-18T06:46:46.107Z,22.84
2022-08-18T06:49:32.973Z,22.92
2022-08-18T06:52:23.707Z,22.94
2022-08-18T06:54:55.195Z,22.99
2022-08-18T06:57:28.184Z,23.00
2022-08-18T07:00:00.043Z,23.06
2022-08-18T07:02:42.623Z,23.15
2022-08-18T07:05:23.828Z,23.24
2022-08-18T07:08:10.457Z,23.32
2022-08-18T07:10:42.290Z,23.42
2022-08-18T07:13:20.737Z,23.49
2022-08-18T07:15:49.928Z,23.52
2022-08-18T07:18:28.042Z,23.60
2022-08-18T07:20:59.896Z,23.61
2022-08-18T07:23:33.893Z,23.70
2022-08-18T07:26:11.934Z,23.74
2022-08-18T07:28:46.598Z,23.79
2022-08-18T07:31:25.576Z,23.83
2022-08-18T07:33:58.692Z,23.90
2022-08-18T07:36:31.967Z,23.93
2022-08-18T07:39:07.378Z,23.96
2022-08-18T07:41:43.963Z,23.93
2022-08-18T07:44:21.107Z,24.04
2022-08-18T07:47:00.189Z,24.11
2022-08-18T07:49:35.566Z,24.15
2022-08-18T07:52:36.518Z,24.15
2022-08-18T07:55:09.959Z,24.16
2022-08-18T07:57:46.128Z,24.19
2022-08-18T08:00:40.941Z,24.25
2022-08-18T08:03:26.971Z,24.36
2022-08-18T08:06:00.661Z,24.39
2022-08-18T08:08:35.235Z,24.55
2022-08-18T08:11:12.571Z,24.69
2022-08-18T08:13:57.370Z,24.71
2022-08-18T08:16:36.551Z,24.72
2022-08-18T08:19:15.522Z,24.82
2022-08-18T08:21:52.892Z,24.87
2022-08-18T08:24:30.392Z,24.96
2022-08-18T08:27:09.477Z,25.09
2022-08-18T08:29:45.748Z,25.24
2022-08-18T08:32:24.155Z,25.37
2022-08-18T08:34:57.730Z,25.42
2022-08-18T08:37:36.540Z,25.59
2022-08-18T08:40:13.410Z,25.78
2022-08-18T08:42:48.821Z,25.92
2022-08-18T08:45:23.704Z,26.16
2022-08-18T08:48:08.120Z,26.29
2022-08-18T08:50:42.264Z,26.23
2022-08-18T08:53:22.138Z,26.22
2022-08-18T08:55:57.670Z,26.27
2022-08-18T08:58:39.278Z,26.35
2022-08-18T09:01:17.345Z,26.41
2022-08-18T09:04:02.439Z,26.50
2022-08-18T09:06:43.598Z,26.52
2022-08-18T09:09:31.041Z,26.60
2022-08-18T09:12:26.568Z,26.61
2022-08-18T09:15:08.465Z,26.63
2022-08-18T09:17:55.616Z,26.66
2022-08-18T09:20:50.825Z,26.74
2022-08-18T09:23:24.279Z,26.89
2022-08-18T09:25:54.915Z,26.94
2022-08-18T09:28:40.849Z,27.02
2022-08-18T09:31:19.886Z,27.09
2022-08-18T09:34:12.951Z,27.21
2022-08-18T09:36:56.566Z,27.40
2022-08-18T09:39:54.456Z,27.73
2022-08-18T09:42:50.076Z,28.12
2022-08-18T09:45:57.785Z,28.49
2022-08-18T09:48:30.446Z,28.82
2022-08-18T09:51:23.824Z,29.08
2022-08-18T09:54:07.991Z,29.10
2022-08-18T09:57:16.590Z,29.16
2022-08-18T09:59:57.710Z,29.15
2022-08-18T10:03:11.830Z,29.27
2022-08-18T10:05:42.676Z,29.59
2022-08-18T10:08:37.707Z,29.97
2022-08-18T10:11:47.289Z,30.38
2022-08-18T10:14:36.500Z,30.47
2022-08-18T10:17:31.494Z,30.85
2022-08-18T10:20:26.238Z,31.03
2022-08-18T10:22:56.554Z,31.11
2022-08-18T10:25:41.095Z,31.24
2022-08-18T10:28:12.773Z,31.44
2022-08-18T10:30:56.597Z,31.67
2022-08-18T10:33:57.606Z,31.87
2022-08-18T10:36:50.862Z,31.80
2022-08-18T10:39:22.489Z,31.78
2022-08-18T10:42:06.381Z,31.80
2022-08-18T10:44:41.968Z,31.95
2022-08-18T10:50:21.863Z,32.26
2022-08-18T10:53:38.919Z,32.39
2022-08-18T10:56:02.354Z,32.53
2022-08-18T10:58:50.693Z,32.66
2022-08-18T11:01:32.821Z,32.99
2022-08-18T11:04:14.120Z,33.37
2022-08-18T11:06:48.718Z,33.74
2022-08-18T11:09:26.138Z,33.87
2022-08-18T11:11:59.836Z,33.95
2022-08-18T11:14:58.954Z,34.01
2022-08-18T11:17:42.690Z,33.57
2022-08-18T11:20:14.320Z,33.29
2022-08-18T11:22:52.279Z,33.34
2022-08-18T11:25:26.172Z,33.61
2022-08-18T11:27:58.226Z,33.84
2022-08-18T11:30:35.234Z,33.88
2022-08-18T11:33:05.486Z,34.13
2022-08-18T11:35:46.986Z,34.39
2022-08-18T11:38:23.352Z,34.53
2022-08-18T11:41:13.019Z,34.44
2022-08-18T11:43:47.352Z,34.32
2022-08-18T11:52:26.388Z,33.97
2022-08-18T11:57:59.128Z,34.09
2022-08-18T12:00:54.545Z,33.94
2022-08-18T12:03:31.835Z,34.19
2022-08-18T12:06:19.118Z,34.60
2022-08-18T12:11:53.451Z,34.95
2022-08-18T12:14:31.643Z,34.90
2022-08-18T12:17:05.530Z,34.67
2022-08-18T12:19:36.438Z,34.78
2022-08-18T12:22:18.789Z,34.78
2022-08-18T12:24:48.295Z,34.94
2022-08-18T12:27:21.714Z,35.17
2022-08-18T12:29:51.702Z,35.30
2022-08-18T12:32:50.357Z,35.45
2022-08-18T12:35:13.643Z,35.53
2022-08-18T12:38:04.896Z,35.52
2022-08-18T12:40:33.788Z,35.38
2022-08-18T12:43:02.615Z,35.21
2022-08-18T12:45:32.450Z,34.87
2022-08-18T12:48:04.286Z,34.77
2022-08-18T12:50:42.689Z,35.21
2022-08-18T12:53:29.862Z,35.59
2022-08-18T12:56:10.595Z,35.97
2022-08-18T12:58:40.599Z,35.94
2022-08-18T13:01:09.186Z,36.07
2022-08-18T13:03:42.492Z,36.19
2022-08-18T13:06:12.683Z,36.30
2022-08-18T13:08:47.887Z,36.28
2022-08-18T13:11:23.545Z,36.25
2022-08-18T13:13:55.190Z,36.21
2022-08-18T13:16:30.660Z,36.11
2022-08-18T13:19:10.623Z,35.58
2022-08-18T13:21:42.879Z,35.02
2022-08-18T13:24:12.754Z,34.51
2022-08-18T13:26:45.800Z,34.03
2022-08-18T13:29:15.508Z,33.72
2022-08-18T13:31:55.637Z,33.72
2022-08-18T13:34:29.940Z,33.52
2022-08-18T13:37:00.729Z,33.14
2022-08-18T13:39:34.079Z,33.14
2022-08-18T13:42:26.824Z,33.23
2022-08-18T13:44:53.633Z,32.92
2022-08-18T13:47:23.353Z,32.90
2022-08-18T13:49:58.153Z,32.99
2022-08-18T13:52:34.790Z,33.05
2022-08-18T13:55:08.118Z,32.76
2022-08-18T13:57:38.672Z,32.73
2022-08-18T14:00:17.932Z,32.43
2022-08-18T14:02:50.741Z,32.29
2022-08-18T14:05:20.774Z,32.01
2022-08-18T14:07:51.653Z,31.92
2022-08-18T14:10:22.007Z,31.89
2022-08-18T14:12:53.379Z,31.69
2022-08-18T14:15:23.358Z,31.38
2022-08-18T14:17:52.537Z,31.18
2022-08-18T14:20:40.344Z,31.02
2022-08-18T14:23:36.074Z,30.86
2022-08-18T14:26:23.860Z,30.87
2022-08-18T14:28:55.461Z,30.87
2022-08-18T14:31:24.665Z,30.94
2022-08-18T14:33:58.511Z,30.89
2022-08-18T14:36:33.330Z,30.98
2022-08-18T14:39:05.416Z,30.97
2022-08-18T14:41:37.052Z,31.03
2022-08-18T14:44:18.277Z,31.12
2022-08-18T14:46:54.323Z,31.19
2022-08-18T14:49:28.687Z,31.33
2022-08-18T14:51:59.464Z,31.41
2022-08-18T14:54:30.647Z,31.53
2022-08-18T14:57:01.682Z,31.73
2022-08-18T14:59:34.519Z,31.91
2022-08-18T15:02:07.677Z,31.99
2022-08-18T15:04:53.093Z,32.07
2022-08-18T15:07:26.602Z,32.13
2022-08-18T15:10:14.941Z,32.14
2022-08-18T15:12:45.830Z,32.03
2022-08-18T15:15:18.084Z,32.09
2022-08-18T15:17:50.234Z,32.11
2022-08-18T15:20:28.806Z,32.09
2022-08-18T15:23:22.854Z,32.03
2022-08-18T15:25:56.370Z,31.81
2022-08-18T15:28:27.904Z,31.74
2022-08-18T15:33:51.216Z,31.43
2022-08-18T15:36:24.040Z,31.36
2022-08-18T15:38:58.206Z,31.21
2022-08-18T15:41:34.724Z,31.19
2022-08-18T15:44:05.011Z,31.22
2022-08-18T15:46:35.062Z,31.23
2022-08-18T15:49:06.008Z,31.26
2022-08-18T15:51:40.995Z,31.23
2022-08-18T15:54:11.551Z,31.06
2022-08-18T15:56:43.424Z,31.06
2022-08-18T15:59:12.648Z,31.07
2022-08-18T16:01:43.445Z,31.01
2022-08-18T16:04:15.533Z,30.95
2022-08-18T16:06:47.690Z,30.96
2022-08-18T16:09:17.731Z,30.97
2022-08-18T16:11:48.463Z,30.98
2022-08-18T16:14:16.947Z,30.94
2022-08-18T16:16:46.175Z,30.93
2022-08-18T16:19:14.698Z,30.91
2022-08-18T16:21:43.966Z,30.90
2022-08-18T16:24:14.530Z,30.91
2022-08-18T16:26:45.396Z,30.83
2022-08-18T16:29:15.123Z,30.65
2022-08-18T16:31:43.978Z,30.46
2022-08-18T16:34:12.512Z,30.37
2022-08-18T16:36:41.982Z,30.32
2022-08-18T16:39:10.410Z,30.30
2022-08-18T16:41:38.815Z,30.29
2022-08-18T16:44:07.246Z,30.26
2022-08-18T16:46:37.861Z,30.22
2022-08-18T16:49:08.069Z,30.16
2022-08-18T16:51:38.649Z,30.14
2022-08-18T16:54:07.474Z,30.12
2022-08-18T16:56:36.601Z,30.09
2022-08-18T16:59:37.224Z,30.03
2022-08-18T17:02:32.779Z,30.02
2022-08-18T17:05:02.910Z,29.97
2022-08-18T17:07:32.444Z,29.92
2022-08-18T17:10:01.791Z,29.90
2022-08-18T17:12:30.674Z,29.87
2022-08-18T17:14:59.050Z,29.87
2022-08-18T17:17:28.808Z,29.86
2022-08-18T17:19:57.151Z,29.82
2022-08-18T17:22:26.116Z,29.79
2022-08-18T17:25:01.955Z,29.71
2022-08-18T17:27:37.871Z,29.64
2022-08-18T17:30:12.795Z,29.59
2022-08-18T17:32:47.800Z,29.53
2022-08-18T17:35:26.326Z,29.48
2022-08-18T17:38:04.825Z,29.42
2022-08-18T17:40:39.556Z,29.35
2022-08-18T17:43:13.179Z,29.31
2022-08-18T17:45:43.547Z,29.25
2022-08-18T17:48:17.376Z,29.14
2022-08-18T17:51:11.411Z,29.03
2022-08-18T17:53:40.143Z,28.93
2022-08-18T17:56:16.377Z,28.83
2022-08-18T17:58:53.366Z,28.73
2022-08-18T18:01:21.816Z,28.66
2022-08-18T18:03:52.446Z,28.60
2022-08-18T18:06:37.802Z,28.52
2022-08-18T18:09:08.360Z,28.47
2022-08-18T18:11:39.132Z,28.41
2022-08-18T18:14:26.282Z,28.36
2022-08-18T18:17:02.094Z,28.28
2022-08-18T18:19:33.439Z,28.22
2022-08-18T18:22:08.076Z,28.12
2022-08-18T18:24:39.221Z,28.02
2022-08-18T18:27:27.054Z,28.01
2022-08-18T18:29:58.182Z,27.94
2022-08-18T18:32:29.315Z,27.89
2022-08-18T18:35:12.900Z,27.84
2022-08-18T18:37:47.169Z,27.75
2022-08-18T18:40:27.537Z,27.67
2022-08-18T18:42:56.764Z,27.59
2022-08-18T18:45:29.015Z,27.54
2022-08-18T18:48:06.837Z,27.48
2022-08-18T18:50:55.541Z,27.41
2022-08-18T18:53:31.059Z,27.31
2022-08-18T18:56:12.577Z,27.24
2022-08-18T18:58:55.103Z,27.21
2022-08-18T19:01:36.698Z,27.18
2022-08-18T19:04:11.250Z,27.11
2022-08-18T19:06:52.369Z,27.09
2022-08-18T19:09:25.768Z,26.97
2022-08-18T19:12:09.644Z,27.05
2022-08-18T19:14:43.564Z,27.00
2022-08-18T19:17:35.058Z,26.93
2022-08-18T19:20:09.560Z,26.90
2022-08-18T19:22:44.419Z,26.86
2022-08-18T19:25:20.559Z,26.67
2022-08-18T19:27:53.528Z,26.61
2022-08-18T19:30:23.070Z,26.60
2022-08-18T19:32:54.951Z,26.42
2022-08-18T19:35:35.269Z,26.28
2022-08-18T19:38:20.853Z,26.10
2022-08-18T19:40:53.947Z,25.97
2022-08-18T19:43:29.839Z,25.89
2022-08-18T19:46:05.695Z,25.80
2022-08-18T19:48:44.091Z,25.72
2022-08-18T19:51:22.391Z,25.73
2022-08-18T19:54:09.472Z,25.67
2022-08-18T19:56:52.054Z,25.63
2022-08-18T19:59:45.844Z,25.41
2022-08-18T20:02:27.428Z,25.35
2022-08-18T20:05:17.559Z,25.28
2022-08-18T20:08:05.808Z,25.28
2022-08-18T20:10:59.804Z,25.27
2022-08-18T20:13:35.628Z,25.23
2022-08-18T20:16:43.264Z,25.10
2022-08-18T20:19:47.127Z,24.91
2022-08-18T20:22:33.827Z,24.93
2022-08-18T20:25:11.177Z,24.72
2022-08-18T20:27:43.012Z,24.74
2022-08-18T20:30:34.231Z,24.70
2022-08-18T20:33:29.296Z,24.63
2022-08-18T20:36:10.466Z,24.57
2022-08-18T20:38:41.299Z,24.62
2022-08-18T20:41:33.895Z,24.67
2022-08-18T20:44:29.487Z,24.72
2022-08-18T20:47:13.856Z,24.76
2022-08-18T20:49:56.773Z,24.66
2022-08-18T20:52:38.609Z,24.60
2022-08-18T20:55:21.588Z,24.55
2022-08-18T20:57:55.362Z,24.42
2022-08-18T21:00:27.814Z,24.45
2022-08-18T21:02:58.943Z,24.46
2022-08-18T21:05:32.737Z,24.49
2022-08-18T21:08:05.329Z,24.38
2022-08-18T21:10:35.664Z,24.35
2022-08-18T21:13:06.678Z,24.28
2022-08-18T21:15:39.802Z,24.16
2022-08-18T21:18:22.320Z,24.17
2022-08-18T21:20:53.893Z,24.07
2022-08-18T21:23:25.688Z,24.11
2022-08-18T21:25:59.687Z,24.11
2022-08-18T21:28:34.950Z,24.14
2022-08-18T21:31:42.481Z,24.16
2022-08-18T21:33:59.788Z,24.12
2022-08-18T21:36:31.589Z,24.09
2022-08-18T21:39:06.136Z,24.02
2022-08-18T21:41:40.300Z,23.85
2022-08-18T21:44:15.053Z,23.80
2022-08-18T21:46:46.335Z,23.79
2022-08-18T21:49:25.605Z,23.80
2022-08-18T21:51:54.644Z,23.73
2022-08-18T21:54:26.417Z,23.72
2022-08-18T21:57:21.793Z,23.74
2022-08-18T22:00:25.184Z,23.77
2022-08-18T22:03:21.817Z,23.78
2022-08-18T22:06:00.754Z,23.71
2022-08-18T22:08:34.034Z,23.71
2022-08-18T22:12:00.953Z,23.65
2022-08-18T22:14:54.683Z,23.65
2022-08-18T22:17:30.478Z,23.54
2022-08-18T22:20:35.003Z,23.50
2022-08-18T22:23:28.513Z,23.50
2022-08-18T22:26:08.348Z,23.58
2022-08-18T22:28:46.386Z,23.59
2022-08-18T22:31:20.848Z,23.59
2022-08-18T22:33:50.691Z,23.60
2022-08-18T22:36:24.440Z,23.64
2022-08-18T22:38:53.399Z,23.64
2022-08-18T22:41:23.047Z,23.60
2022-08-18T22:43:55.066Z,23.57
2022-08-18T22:46:25.778Z,23.50
2022-08-18T22:48:54.353Z,23.43
2022-08-18T22:51:27.970Z,23.35
2022-08-18T22:53:56.807Z,23.25
2022-08-18T22:56:34.575Z,23.22
2022-08-18T22:59:14.119Z,23.19
2022-08-18T23:01:48.121Z,23.15
2022-08-18T23:04:18.752Z,23.10
2022-08-18T23:06:52.476Z,23.10
2022-08-18T23:09:23.127Z,23.06
2022-08-18T23:11:53.562Z,23.04
2022-08-18T23:14:22.336Z,23.03
2022-08-18T23:16:51.976Z,23.04
2022-08-18T23:19:22.398Z,23.01
2022-08-18T23:21:52.449Z,23.00
2022-08-18T23:24:22.320Z,22.97
2022-08-18T23:26:51.139Z,22.92
2022-08-18T23:29:22.783Z,22.91
2022-08-18T23:31:52.490Z,22.93
2022-08-18T23:34:24.275Z,22.93
2022-08-18T23:36:58.102Z,22.95
2022-08-18T23:39:27.673Z,22.92
2022-08-18T23:41:56.769Z,22.88
2022-08-18T23:44:27.851Z,22.87
2022-08-18T23:46:58.329Z,22.78
2022-08-18T23:49:28.678Z,22.77
2022-08-18T23:52:00.015Z,22.79
2022-08-18T23:54:33.107Z,22.81
2022-08-18T23:57:02.255Z,22.83
2022-08-18T23:59:30.909Z,22.79
